Time;durP1;ratioP1;P1;durP2;ratioP2;P2;SDS_P1;SDS_P2;PMS_P1;PMS_P2;Temp;Humidity;BMP_temperature;BMP_pressure;BME280_temperature;BME280_humidity;BME280_pressure;Samples;Min_cycle;Max_cycle;Signal;HPM_P1;HPM_P2
2022/11/14 00:01:14;;;;;;;22.95;19.85;;;12.00;99.90;;;12.15;69.89;101413.13;5081044;28;20119;-89
2022/11/14 00:04:03;;;;;;;23.27;20.08;;;11.90;99.90;;;12.18;69.93;101422.81;5080368;28;20055;-88
2022/11/14 00:06:53;;;;;;;23.70;19.98;;;12.00;99.90;;;12.12;70.12;101420.19;5080179;28;20402;-88
2022/11/14 00:09:41;;;;;;;25.58;20.23;;;11.90;99.90;;;11.02;70.27;101227.78;5075367;28;20112;-88
2022/11/14 00:12:29;;;;;;;23.17;19.85;;;11.90;99.90;;;12.07;70.39;101409.59;5074404;28;20051;-89
2022/11/14 00:15:16;;;;;;;25.88;21.83;;;11.90;99.90;;;11.37;70.38;101288.66;5076465;28;20414;-89
2022/11/14 00:18:03;;;;;;;23.33;20.58;;;11.80;99.90;;;12.05;70.47;101416.69;5074751;28;20055;-89
2022/11/14 00:20:53;;;;;;;23.77;21.10;;;11.80;99.90;;;11.95;70.24;101403.44;5073857;28;20047;-88
2022/11/14 00:23:40;;;;;;;24.48;21.05;;;11.70;99.90;;;11.59;70.08;101351.34;5072974;28;20418;-88
2022/11/14 00:26:27;;;;;;;24.55;20.02;;;11.70;99.90;;;11.30;70.73;101401.66;5073097;28;20048;-89
2022/11/14 00:29:15;;;;;;;23.45;20.92;;;11.50;99.90;;;10.95;71.07;101355.72;5073077;28;20056;-88
2022/11/14 00:32:02;;;;;;;25.90;21.58;;;11.40;99.90;;;10.63;71.28;101272.72;5072865;28;20413;-88
2022/11/14 00:34:49;;;;;;;24.55;20.25;;;11.30;99.90;;;10.56;71.27;101242.75;5073123;28;20055;-89
2022/11/14 00:37:37;;;;;;;26.52;20.83;;;11.30;99.90;;;10.90;71.62;101389.22;5072759;28;20410;-88
2022/11/14 00:40:24;;;;;;;22.60;20.10;;;11.20;99.90;;;11.38;71.66;101446.69;5095970;28;20070;-89
2022/11/14 00:43:11;;;;;;;26.35;20.70;;;11.20;99.90;;;10.81;71.59;101368.03;5113281;28;20104;-87
2022/11/14 00:45:58;;;;;;;23.77;20.15;;;11.10;99.90;;;10.25;72.47;101280.56;5113688;28;20062;-88
2022/11/14 00:48:46;;;;;;;22.85;20.33;;;10.80;99.90;;;10.82;72.85;101396.25;5113275;28;20127;-89
2022/11/14 00:51:33;;;;;;;24.25;20.33;;;10.70;99.90;;;9.36;73.73;101252.78;5116821;28;20054;-89
2022/11/14 00:54:21;;;;;;;25.30;21.05;;;10.30;99.90;;;9.46;75.54;101316.22;5117402;28;20101;-89
2022/11/14 00:57:08;;;;;;;24.60;20.77;;;9.90;99.90;;;9.74;76.65;101365.72;5116999;28;20059;-88
2022/11/14 00:59:56;;;;;;;26.00;20.42;;;9.70;99.90;;;10.19;76.56;101381.00;5116931;28;20104;-88
2022/11/14 01:02:45;;;;;;;24.45;20.25;;;9.90;99.90;;;10.16;75.86;101324.59;5116898;28;20232;-88
2022/11/14 01:05:32;;;;;;;24.75;20.42;;;10.10;99.90;;;9.06;75.21;101163.72;5116766;28;20046;-86
2022/11/14 01:08:20;;;;;;;24.83;21.90;;;10.20;99.90;;;9.88;74.79;101245.16;5116759;28;20093;-89
2022/11/14 01:11:12;;;;;;;25.35;21.15;;;10.30;99.90;;;10.63;74.69;101376.78;5117098;28;20062;-88
2022/11/14 01:13:59;;;;;;;27.05;20.58;;;10.40;99.90;;;8.78;73.90;101043.09;5116887;28;20489;-88
2022/11/14 01:16:46;;;;;;;23.67;20.73;;;10.50;99.90;;;9.37;73.67;101136.63;5117249;28;20058;-89
2022/11/14 01:19:33;;;;;;;23.45;19.90;;;10.50;99.90;;;10.48;73.97;101373.19;5117391;28;20059;-89
2022/11/14 01:22:21;;;;;;;23.15;19.52;;;10.40;99.90;;;9.95;74.16;101302.44;5116831;28;20043;-88
2022/11/14 01:25:09;;;;;;;22.95;20.38;;;10.20;99.90;;;9.31;74.48;101228.97;5116844;28;20054;-89
2022/11/14 01:27:57;;;;;;;23.83;20.42;;;10.10;99.90;;;9.49;75.00;101303.03;5116281;28;20050;-87
2022/11/14 01:30:44;;;;;;;22.65;19.95;;;9.70;99.90;;;8.76;76.23;101226.81;5116173;28;20059;-86
2022/11/14 01:33:31;;;;;;;23.42;19.30;;;9.50;99.90;;;9.82;76.24;101340.25;5116182;28;20097;-87
2022/11/14 01:36:19;;;;;;;22.73;18.98;;;9.60;99.90;;;9.35;75.93;101241.34;5116116;28;20073;-86
2022/11/14 01:39:06;;;;;;;23.15;19.13;;;9.70;99.90;;;8.57;76.20;101116.81;5116073;28;20113;-87
2022/11/14 01:41:54;;;;;;;25.20;20.17;;;9.70;99.90;;;9.85;75.71;101327.03;5116310;28;20128;-87
2022/11/14 01:44:47;;;;;;;22.90;19.15;;;9.70;99.90;;;9.27;76.08;101210.50;5115949;28;20189;-87
2022/11/14 01:47:36;;;;;;;25.90;20.15;;;9.70;99.90;;;9.27;75.62;101200.81;5115954;28;20039;-86
2022/11/14 01:50:23;;;;;;;22.95;20.08;;;9.80;99.90;;;10.03;75.37;101302.47;5115857;28;20412;-88
2022/11/14 01:53:12;;;;;;;22.00;19.55;;;9.80;99.90;;;8.97;74.98;101161.03;5115735;28;20050;-88
2022/11/14 01:56:04;;;;;;;23.35;19.98;;;9.80;99.90;;;8.40;75.38;101026.19;5115682;28;20462;-87
2022/11/14 01:58:57;;;;;;;21.23;18.80;;;9.80;99.90;;;9.58;74.99;101220.38;5115934;28;20063;-87
2022/11/14 02:01:49;;;;;;;25.20;19.50;;;9.90;99.90;;;9.40;74.62;101193.84;5114997;28;20069;-87
2022/11/14 02:04:41;;;;;;;23.75;18.92;;;9.90;99.90;;;9.45;74.54;101208.84;5115524;28;20051;-88
2022/11/14 02:07:41;;;;;;;23.45;19.80;;;9.90;99.90;;;9.15;74.80;101228.88;5115508;28;20136;-87
2022/11/14 02:10:28;;;;;;;21.17;17.92;;;9.80;99.90;;;9.65;74.68;101253.84;5115427;28;20054;-86
2022/11/14 02:13:15;;;;;;;25.27;19.10;;;9.80;99.90;;;9.80;74.98;101272.41;5115342;28;20460;-87
2022/11/14 02:16:02;;;;;;;22.58;18.70;;;9.70;99.90;;;9.70;74.77;101284.69;5115270;28;20054;-88
2022/11/14 02:18:50;;;;;;;23.63;19.42;;;9.70;99.90;;;9.33;75.27;101229.03;5115282;28;20076;-86
2022/11/14 02:21:38;;;;;;;22.80;19.10;;;9.50;99.90;;;9.47;75.38;101275.75;5115120;28;20043;-88
2022/11/14 02:24:25;;;;;;;23.63;19.08;;;9.40;99.90;;;9.39;75.37;101239.63;5115354;28;20122;-88
2022/11/14 02:27:14;;;;;;;26.48;20.15;;;9.40;99.90;;;9.17;75.35;101209.56;5115342;28;20095;-87
2022/11/14 02:30:06;;;;;;;22.67;19.40;;;9.40;99.90;;;9.29;75.40;101248.34;5115299;28;20166;-87
2022/11/14 02:32:53;;;;;;;21.98;19.05;;;9.40;99.90;;;9.46;75.64;101244.06;5114957;28;20051;-88
2022/11/14 02:35:57;;;;;;;22.17;19.58;;;9.40;99.90;;;9.57;75.33;101250.28;5115178;28;20400;-88
2022/11/14 02:38:45;;;;;;;23.67;20.05;;;9.40;99.90;;;9.35;75.23;101251.03;5115172;28;20104;-87
2022/11/14 02:41:32;;;;;;;21.40;19.13;;;9.40;99.90;;;8.21;75.37;101054.09;5114949;28;20055;-87
2022/11/14 02:44:19;;;;;;;23.05;19.70;;;9.30;99.90;;;9.25;75.84;101230.72;5114967;28;20413;-87
2022/11/14 02:47:08;;;;;;;22.65;18.98;;;9.20;99.90;;;9.41;75.94;101244.00;5114693;28;20074;-87
2022/11/14 02:49:55;;;;;;;24.38;19.40;;;9.20;99.90;;;9.20;75.86;101191.09;5114899;28;20436;-87
2022/11/14 02:52:42;;;;;;;22.15;18.30;;;9.30;99.90;;;9.21;75.40;101194.63;5114853;28;20051;-86
2022/11/14 02:55:31;;;;;;;21.50;18.58;;;9.30;99.90;;;9.54;75.63;101239.72;5114533;28;20412;-87
2022/11/14 02:58:18;;;;;;;23.98;19.60;;;9.40;99.90;;;9.41;75.13;101220.25;5114479;28;20105;-86
2022/11/14 03:01:05;;;;;;;24.65;19.00;;;9.30;99.90;;;6.94;75.37;100783.69;5114582;28;20058;-86
2022/11/14 03:04:06;;;;;;;25.88;18.77;;;9.40;99.90;;;8.86;75.18;101134.59;5114547;28;20545;-87
2022/11/14 03:06:53;;;;;;;21.30;18.90;;;9.40;99.90;;;7.49;74.81;100883.22;5114278;28;20070;-86
2022/11/14 03:09:40;;;;;;;22.88;18.10;;;9.40;99.90;;;8.97;75.09;101161.94;5114209;28;20070;-87
2022/11/14 03:12:28;;;;;;;23.33;18.63;;;9.30;99.90;;;9.09;74.83;101191.03;5114375;28;20058;-86
2022/11/14 03:15:15;;;;;;;22.63;19.50;;;9.40;99.90;;;8.98;75.05;101184.78;5113591;28;20055;-87
2022/11/14 03:18:02;;;;;;;22.20;18.92;;;9.30;99.90;;;9.27;74.75;101224.56;5114064;28;20043;-87
2022/11/14 03:20:49;;;;;;;24.33;20.10;;;9.20;99.90;;;9.19;75.32;101228.94;5114308;28;20062;-86
2022/11/14 03:23:37;;;;;;;22.20;18.70;;;9.00;99.90;;;7.63;75.21;101036.00;5113944;28;20046;-86
2022/11/14 03:26:24;;;;;;;25.88;20.45;;;9.10;99.90;;;9.15;75.86;101242.97;5113953;28;20054;-86
2022/11/14 03:29:15;;;;;;;23.17;19.15;;;9.00;99.90;;;8.86;75.83;101190.00;5113885;28;20429;-87
2022/11/14 03:32:02;;;;;;;24.30;19.60;;;9.00;99.90;;;8.31;76.41;101160.50;5113870;28;20096;-86
2022/11/14 03:34:49;;;;;;;23.90;20.77;;;8.60;99.90;;;8.69;77.27;101241.69;5113950;28;20092;-85
2022/11/14 03:37:36;;;;;;;22.05;19.08;;;8.50;99.90;;;8.49;77.28;101160.66;5113779;28;20561;-86
2022/11/14 03:40:24;;;;;;;24.48;20.60;;;8.60;99.90;;;8.20;77.15;101116.47;5113594;28;20058;-86
2022/11/14 03:43:11;;;;;;;24.10;20.08;;;8.60;99.90;;;8.41;77.45;101151.81;5113843;28;20070;-86
2022/11/14 03:46:00;;;;;;;22.90;20.40;;;8.60;99.90;;;7.74;77.43;101035.25;5114844;28;20046;-87
2022/11/14 03:48:47;;;;;;;25.92;21.00;;;8.60;99.90;;;8.65;77.93;101210.88;5114373;28;20046;-86
2022/11/14 03:51:34;;;;;;;24.83;20.25;;;8.60;99.90;;;8.47;77.86;101229.19;5113661;28;20086;-86
2022/11/14 03:54:21;;;;;;;23.65;20.35;;;8.40;99.90;;;8.58;78.04;101198.53;5113861;28;20058;-86
2022/11/14 03:57:09;;;;;;;28.63;21.80;;;8.50;99.90;;;8.60;78.16;101196.78;5113542;28;20050;-87
2022/11/14 03:59:57;;;;;;;26.55;22.20;;;8.50;99.90;;;8.50;77.72;101226.56;5113534;28;20182;-86
2022/11/14 04:02:46;;;;;;;29.30;21.67;;;8.40;99.90;;;8.11;78.65;101157.63;5113448;28;20051;-87
2022/11/14 04:05:33;;;;;;;26.45;21.75;;;8.30;99.90;;;7.68;78.58;101105.41;5113502;28;20058;-86
2022/11/14 04:08:21;;;;;;;27.45;21.65;;;8.20;99.90;;;8.31;79.21;101202.66;5113765;28;20081;-87
2022/11/14 04:11:08;;;;;;;31.48;22.52;;;8.10;99.90;;;7.91;79.48;101161.81;5113456;28;20132;-86
2022/11/14 04:13:55;;;;;;;30.33;22.88;;;8.00;99.90;;;7.86;79.25;101201.25;5113726;28;20133;-87
2022/11/14 04:16:42;;;;;;;28.15;23.23;;;8.10;99.90;;;7.52;79.51;101135.91;5113336;28;20058;-86
2022/11/14 04:19:33;;;;;;;28.58;23.48;;;8.00;99.90;;;7.71;79.71;101103.66;5113374;28;20050;-86
2022/11/14 04:22:20;;;;;;;29.17;23.17;;;8.00;99.90;;;7.24;79.47;101066.28;5113253;28;20050;-86
2022/11/14 04:25:09;;;;;;;27.33;22.40;;;8.00;99.90;;;8.19;79.54;101175.28;5114885;28;20051;-86
2022/11/14 04:27:56;;;;;;;35.08;24.27;;;8.00;99.90;;;8.11;79.43;101187.50;5117476;28;20074;-86
2022/11/14 04:30:44;;;;;;;27.77;23.20;;;8.10;99.90;;;8.23;78.93;101181.47;5117336;28;20416;-86
2022/11/14 04:33:31;;;;;;;31.95;23.92;;;8.10;99.90;;;8.31;78.86;101176.31;5117312;28;20050;-86
2022/11/14 04:36:19;;;;;;;31.65;24.42;;;8.20;99.90;;;8.20;78.79;101179.72;5117271;28;20553;-87
2022/11/14 04:39:06;;;;;;;30.08;23.30;;;8.20;99.90;;;7.92;78.48;101124.06;5117253;28;20077;-85
2022/11/14 04:41:53;;;;;;;34.17;24.23;;;8.10;99.90;;;7.44;78.95;101048.09;5116735;28;20138;-84
2022/11/14 04:44:40;;;;;;;29.83;24.00;;;8.10;99.90;;;7.48;79.27;101110.44;5117394;28;20066;-86
2022/11/14 04:47:27;;;;;;;35.30;24.35;;;7.80;99.90;;;7.17;80.53;101100.38;5117070;28;20424;-86
2022/11/14 04:50:14;;;;;;;32.00;23.63;;;7.50;99.90;;;7.21;81.39;101160.06;5117196;28;20061;-85
2022/11/14 04:53:03;;;;;;;30.83;23.63;;;7.20;99.90;;;6.90;82.32;101149.97;5117000;28;20190;-86
2022/11/14 04:55:53;;;;;;;35.35;25.40;;;6.90;99.90;;;6.91;83.03;101152.63;5116937;28;20050;-87
2022/11/14 04:58:40;;;;;;;35.03;26.02;;;6.90;99.90;;;6.22;84.00;101049.94;5116829;28;20055;-87
2022/11/14 05:01:27;;;;;;;36.92;25.60;;;6.60;99.90;;;6.44;84.90;101118.59;5117058;28;20097;-85
2022/11/14 05:04:14;;;;;;;38.92;27.15;;;6.50;99.90;;;5.49;85.38;100927.13;5116690;28;20055;-88
2022/11/14 05:07:01;;;;;;;42.85;27.95;;;6.50;99.90;;;6.79;85.11;101126.16;5116669;28;20421;-87
2022/11/14 05:09:50;;;;;;;40.83;29.67;;;6.60;99.90;;;6.08;84.63;101040.97;5116598;28;20518;-86
2022/11/14 05:12:36;;;;;;;37.72;27.55;;;6.80;99.90;;;7.01;85.04;101109.81;5116823;28;20062;-87
2022/11/14 05:15:24;;;;;;;41.65;28.92;;;6.80;99.90;;;6.49;84.29;101012.69;5116462;28;20099;-87
2022/11/14 05:18:11;;;;;;;40.95;28.55;;;7.00;99.90;;;7.10;84.47;101111.69;5116384;28;20070;-87
2022/11/14 05:20:59;;;;;;;39.95;28.67;;;7.00;99.90;;;6.65;84.11;101058.47;5116622;28;20054;-85
2022/11/14 05:23:46;;;;;;;41.17;30.10;;;7.00;99.90;;;6.81;84.37;101105.16;5116237;28;20519;-85
2022/11/14 05:26:35;;;;;;;42.17;29.45;;;6.80;99.90;;;6.97;84.57;101099.22;5116318;28;20047;-86
2022/11/14 05:29:22;;;;;;;47.95;31.13;;;6.80;99.90;;;6.84;84.84;101097.28;5116195;28;20050;-87
2022/11/14 05:32:09;;;;;;;41.35;29.00;;;6.80;99.90;;;6.50;84.50;101024.09;5116199;28;20051;-86
2022/11/14 05:35:03;;;;;;;44.80;30.83;;;6.90;99.90;;;6.98;84.85;101119.41;5116143;28;20050;-87
2022/11/14 05:37:49;;;;;;;43.47;29.88;;;6.90;99.90;;;6.42;84.79;101054.63;5115356;28;20062;-86
2022/11/14 05:40:42;;;;;;;45.78;30.40;;;6.80;99.90;;;5.34;85.15;100897.97;5115777;28;20054;-87
2022/11/14 05:43:31;;;;;;;43.10;31.02;;;6.60;99.90;;;6.45;85.80;101078.31;5115974;28;20050;-87
2022/11/14 05:46:18;;;;;;;46.65;30.52;;;6.60;99.90;;;6.69;86.07;101118.09;5116123;28;20421;-87
2022/11/14 05:49:05;;;;;;;43.08;30.58;;;6.50;99.90;;;6.41;85.76;101050.25;5116075;28;20125;-87
2022/11/14 05:51:52;;;;;;;48.47;31.02;;;6.60;99.90;;;6.14;85.46;101072.56;5115998;28;20054;-86
2022/11/14 05:54:39;;;;;;;43.70;30.40;;;6.60;99.90;;;6.63;85.26;101070.72;5115713;28;20089;-87
2022/11/14 05:57:26;;;;;;;44.45;30.40;;;6.70;99.90;;;6.95;85.11;101137.78;5115701;28;20136;-86
2022/11/14 06:00:17;;;;;;;41.10;29.88;;;6.80;99.90;;;7.22;84.66;101122.34;5100705;28;20051;-87
2022/11/14 06:03:04;;;;;;;46.08;32.35;;;7.00;99.90;;;7.15;84.11;101086.34;5115735;28;20575;-86
2022/11/14 06:05:52;;;;;;;43.92;30.52;;;7.10;99.90;;;7.17;83.67;101135.47;5115577;28;20057;-86
2022/11/14 06:08:40;;;;;;;44.40;31.73;;;7.10;99.90;;;6.54;83.67;101054.81;5115500;28;20058;-86
2022/11/14 06:11:27;;;;;;;45.67;30.48;;;6.90;99.90;;;6.79;84.33;101086.75;5116014;28;20153;-86
2022/11/14 06:14:14;;;;;;;45.85;32.25;;;6.80;99.90;;;6.13;84.62;101007.81;5115695;28;20140;-86
2022/11/14 06:17:03;;;;;;;46.85;31.45;;;6.60;99.90;;;6.51;85.18;101123.06;5115398;28;20128;-86
2022/11/14 06:19:50;;;;;;;46.67;31.60;;;6.50;99.90;;;6.28;85.81;101085.94;5115320;28;20404;-87
2022/11/14 06:22:36;;;;;;;45.08;31.73;;;6.30;99.90;;;6.35;85.96;101109.69;5099877;28;20057;-86
2022/11/14 06:25:24;;;;;;;46.95;32.10;;;6.30;99.90;;;6.03;86.49;101092.53;5115111;28;20055;-86
2022/11/14 06:28:11;;;;;;;45.47;31.33;;;6.00;99.90;;;5.98;87.13;101109.06;5115176;28;20138;-86
2022/11/14 06:30:59;;;;;;;49.90;33.45;;;5.90;99.90;;;5.75;88.63;101113.81;5114996;28;20412;-85
2022/11/14 06:33:48;;;;;;;48.88;33.22;;;5.60;99.90;;;5.35;90.16;101082.44;5115177;28;20062;-86
2022/11/14 06:36:35;;;;;;;50.50;32.15;;;5.40;99.90;;;5.06;90.85;101065.22;5114885;28;20066;-84
2022/11/14 06:39:22;;;;;;;44.95;31.80;;;5.30;99.90;;;5.46;91.05;101070.41;5115022;28;20081;-84
2022/11/14 06:42:09;;;;;;;52.00;33.50;;;5.40;99.90;;;5.55;90.99;101104.72;5114972;28;20055;-84
2022/11/14 06:44:56;;;;;;;49.63;33.80;;;5.40;99.90;;;5.03;91.22;101034.59;5114568;28;20120;-86
2022/11/14 06:47:43;;;;;;;52.33;34.47;;;5.40;99.90;;;4.59;91.29;100928.91;5114728;28;20055;-85
2022/11/14 06:50:31;;;;;;;53.93;33.97;;;5.40;99.90;;;4.54;91.95;100940.13;5114579;28;20058;-84
2022/11/14 06:53:19;;;;;;;54.23;35.80;;;5.30;99.90;;;4.80;91.85;101011.41;5114737;28;20062;-85
2022/11/14 06:56:09;;;;;;;55.47;36.40;;;5.40;99.90;;;5.67;91.73;101098.81;5114413;28;20503;-84
2022/11/14 06:58:55;;;;;;;47.65;34.03;;;5.50;99.90;;;5.26;91.44;101041.22;5114458;28;20531;-86
2022/11/14 07:01:42;;;;;;;53.33;35.13;;;5.70;99.90;;;5.80;90.73;101046.59;5114558;28;20051;-84
2022/11/14 07:04:30;;;;;;;51.92;35.75;;;5.90;99.90;;;5.71;90.25;101049.03;5114148;28;20553;-85
2022/11/14 07:07:21;;;;;;;54.00;35.93;;;5.90;99.90;;;5.85;90.30;101086.03;5114055;28;20149;-84
2022/11/14 07:10:10;;;;;;;51.23;33.60;;;5.80;99.90;;;5.91;90.03;101091.41;5114089;28;20125;-84
2022/11/14 07:12:57;;;;;;;55.33;35.15;;;5.90;99.90;;;5.58;90.28;101033.03;5114199;28;20136;-84
2022/11/14 07:15:51;;;;;;;58.20;36.80;;;5.80;99.90;;;5.86;90.02;101072.97;5114031;28;20181;-82
2022/11/14 07:18:37;;;;;;;60.13;36.73;;;5.90;99.90;;;5.88;90.84;101101.88;5114022;28;20047;-83
2022/11/14 07:21:25;;;;;;;55.95;36.80;;;5.80;99.90;;;5.82;90.81;101097.38;5114035;28;20451;-82
2022/11/14 07:24:13;;;;;;;56.10;34.70;;;5.80;99.90;;;5.99;90.36;101074.94;5113984;28;20095;-83
2022/11/14 07:27:01;;;;;;;52.22;34.30;;;6.00;99.90;;;6.32;89.55;101075.50;5114177;28;20514;-83
2022/11/14 07:29:48;;;;;;;47.78;33.50;;;6.30;99.90;;;6.28;88.80;101042.19;5114217;28;20451;-83
2022/11/14 07:32:35;;;;;;;45.88;32.22;;;6.40;99.90;;;6.53;87.81;101034.63;5114113;28;20058;-83
2022/11/14 07:35:22;;;;;;;45.55;31.23;;;6.70;99.90;;;6.78;86.68;101091.94;5113869;28;20409;-84
2022/11/14 07:38:09;;;;;;;45.55;30.67;;;6.70;99.90;;;6.24;86.23;100930.06;5113817;28;20512;-83
2022/11/14 07:41:00;;;;;;;43.33;29.92;;;7.00;99.90;;;7.12;84.92;101062.63;5113620;28;20062;-85
2022/11/14 07:43:46;;;;;;;39.50;29.23;;;7.20;99.90;;;7.54;84.23;101073.66;5113868;28;20078;-83
2022/11/14 07:46:34;;;;;;;44.00;29.45;;;7.30;99.90;;;6.99;83.01;100992.31;5113830;28;20393;-86
2022/11/14 07:49:21;;;;;;;44.58;29.40;;;7.40;99.90;;;6.05;82.57;100838.78;5113832;28;20139;-85
2022/11/14 07:52:08;;;;;;;45.13;29.80;;;7.30;99.90;;;7.57;82.61;101086.84;5113618;28;20409;-85
2022/11/14 07:54:55;;;;;;;43.60;29.48;;;7.40;99.90;;;7.30;82.16;101053.22;5113792;28;20504;-84
2022/11/14 07:57:43;;;;;;;37.97;27.65;;;7.40;99.90;;;6.31;81.99;100884.63;5113767;28;20171;-85
2022/11/14 08:00:35;;;;;;;39.33;27.63;;;7.50;99.90;;;7.83;81.69;101055.53;5112886;28;20078;-86
2022/11/14 08:03:22;;;;;;;38.13;27.70;;;7.70;99.90;;;7.69;80.87;101038.69;5113636;28;20055;-85
2022/11/14 08:06:12;;;;;;;40.03;27.33;;;7.70;99.90;;;8.26;80.71;101067.34;5113466;28;20420;-85
2022/11/14 08:09:00;;;;;;;38.10;26.55;;;8.00;99.90;;;8.33;79.52;101042.81;5113389;28;20059;-86
2022/11/14 08:11:50;;;;;;;39.75;26.38;;;8.30;99.90;;;8.97;79.09;101064.31;5113393;28;20058;-85
2022/11/14 08:14:39;;;;;;;34.25;26.17;;;8.70;99.90;;;9.15;76.58;101002.84;5113368;28;20416;-88
2022/11/14 08:17:26;;;;;;;34.10;25.00;;;9.30;99.90;;;8.75;75.40;100869.06;5113202;28;20054;-89
2022/11/14 08:20:13;;;;;;;35.28;25.10;;;9.70;99.90;;;10.33;73.29;101084.94;5113137;28;20042;-87
2022/11/14 08:23:05;;;;;;;33.35;24.05;;;10.10;99.90;;;10.64;72.18;101078.75;5113569;28;20066;-88
2022/11/14 08:25:53;;;;;;;35.05;24.13;;;10.40;99.90;;;9.42;70.81;100929.00;5113612;28;20050;-88
2022/11/14 08:28:40;;;;;;;31.20;23.75;;;10.40;99.90;;;10.54;70.83;101072.59;5113614;28;20066;-88
2022/11/14 08:31:29;;;;;;;33.30;22.85;;;10.40;99.90;;;9.96;70.48;100952.78;5113411;28;20101;-88
2022/11/14 08:34:16;;;;;;;31.60;22.80;;;10.60;99.90;;;9.81;71.60;100976.53;5115667;28;20518;-89
2022/11/14 08:37:04;;;;;;;30.45;22.67;;;10.20;99.90;;;10.50;70.48;100987.97;5114954;28;20050;-88
2022/11/14 08:39:50;;;;;;;34.10;22.98;;;10.80;99.90;;;11.37;68.94;101076.78;5114705;28;20092;-88
2022/11/14 08:42:38;;;;;;;27.10;21.50;;;11.10;99.90;;;11.57;68.11;101075.81;5113814;28;20066;-88
2022/11/14 08:45:25;;;;;;;29.92;22.52;;;11.40;99.90;;;11.34;69.35;101075.00;5113045;28;20405;-88
2022/11/14 08:48:14;;;;;;;28.40;21.42;;;11.10;99.90;;;10.48;69.63;100993.25;5113739;28;20128;-89
2022/11/14 08:51:04;;;;;;;26.88;19.95;;;10.80;99.90;;;11.29;68.29;101026.50;5113375;28;20097;-89
2022/11/14 08:53:51;;;;;;;30.25;21.08;;;11.20;99.90;;;11.79;67.91;101074.81;5113621;28;20104;-88
2022/11/14 08:56:38;;;;;;;30.48;21.67;;;11.50;99.90;;;10.38;69.46;101011.78;5113552;28;20054;-90
2022/11/14 08:59:25;;;;;;;27.70;20.27;;;10.70;99.90;;;10.66;70.77;101026.72;5113249;28;20110;-90
2022/11/14 09:02:13;;;;;;;26.83;19.92;;;10.60;99.90;;;9.55;70.20;100755.63;5113318;28;20050;-89
2022/11/14 09:05:02;;;;;;;24.52;19.63;;;10.90;99.90;;;11.03;69.53;101057.50;5113235;28;20532;-90
2022/11/14 09:07:49;;;;;;;25.85;19.42;;;10.80;99.90;;;11.42;69.44;101035.28;5113470;28;20140;-90
2022/11/14 09:10:38;;;;;;;26.63;21.13;;;11.10;99.90;;;10.47;69.57;100948.31;5113041;28;20108;-87
2022/11/14 09:13:26;;;;;;;25.50;20.52;;;10.90;99.90;;;9.50;71.65;100860.38;5116103;28;20065;-89
2022/11/14 09:16:13;;;;;;;24.95;19.63;;;10.30;99.90;;;10.33;72.56;101040.91;5116565;28;20226;-89
2022/11/14 09:19:00;;;;;;;28.63;20.02;;;10.00;99.90;;;10.40;72.73;101124.59;5116566;28;20105;-89
2022/11/14 09:21:49;;;;;;;26.75;21.42;;;10.10;99.90;;;10.72;73.28;101055.81;5116750;28;20630;-88
2022/11/14 09:24:36;;;;;;;27.10;20.13;;;10.30;99.90;;;10.73;72.70;100988.78;5116640;28;20108;-90
2022/11/14 09:27:23;;;;;;;31.65;20.88;;;10.60;99.90;;;11.12;72.09;101007.16;5116581;28;20126;-88
2022/11/14 09:30:12;;;;;;;28.20;20.70;;;10.90;99.90;;;11.69;70.12;101040.44;5116275;28;20062;-89
2022/11/14 09:33:01;;;;;;;27.33;19.63;;;11.40;99.90;;;11.52;70.24;101029.00;5116194;28;20058;-89
2022/11/14 09:35:57;;;;;;;23.23;19.45;;;11.20;99.90;;;10.82;70.64;100957.00;5116142;28;20047;-87
2022/11/14 09:38:46;;;;;;;24.00;18.95;;;11.00;99.90;;;11.06;70.41;100983.38;5116128;28;20046;-89
2022/11/14 09:41:51;;;;;;;28.30;19.60;;;11.10;99.90;;;11.27;70.71;100932.94;5116017;28;20108;-90
2022/11/14 09:44:55;;;;;;;23.33;18.40;;;11.30;99.90;;;10.90;68.50;100822.88;5115897;28;20504;-90
2022/11/14 09:47:45;;;;;;;24.95;18.92;;;11.70;99.90;;;11.70;68.35;101000.69;5116174;28;20061;-91
2022/11/14 09:50:37;;;;;;;21.30;18.95;;;11.60;99.90;;;11.13;69.24;100913.59;5115941;28;20055;-90
2022/11/14 09:53:32;;;;;;;24.02;19.35;;;11.50;99.90;;;10.90;71.60;100968.44;5115816;28;20054;-90
2022/11/14 09:56:25;;;;;;;26.70;19.13;;;11.00;99.90;;;11.47;71.04;100981.38;5116251;28;20061;-90
2022/11/14 09:59:13;;;;;;;25.65;19.48;;;11.30;99.90;;;11.25;72.44;101000.91;5115962;28;20101;-90
2022/11/14 10:02:06;;;;;;;25.55;19.35;;;11.00;99.90;;;11.16;72.90;101000.09;5115809;28;20412;-91
2022/11/14 10:05:16;;;;;;;26.73;19.58;;;11.00;99.90;;;11.33;71.61;100984.97;5115721;28;20161;-88
2022/11/14 10:08:36;;;;;;;27.33;19.80;;;11.40;99.90;;;10.81;73.74;101035.50;5115438;28;20154;-89
2022/11/14 10:11:33;;;;;;;25.40;19.55;;;10.80;99.90;;;10.87;75.50;100968.47;5115686;28;20051;-89
2022/11/14 10:15:05;;;;;;;31.23;21.35;;;10.70;99.90;;;10.96;74.89;100992.22;5115383;28;20169;-88
2022/11/14 10:18:10;;;;;;;25.55;20.13;;;10.60;99.90;;;10.33;75.66;100958.03;5082246;28;20499;-87
2022/11/14 10:21:09;;;;;;;31.05;21.25;;;10.50;99.90;;;10.85;75.71;100973.75;5115447;28;20512;-88
2022/11/14 10:24:05;;;;;;;30.38;23.25;;;10.60;99.90;;;10.96;75.92;100964.88;5114928;28;20089;-88
2022/11/14 10:27:02;;;;;;;31.83;23.15;;;10.70;99.90;;;11.13;74.33;100995.66;5115171;28;20047;-89
2022/11/14 10:30:10;;;;;;;30.42;24.30;;;10.90;99.90;;;10.30;77.28;100897.25;5115368;28;20059;-88
2022/11/14 10:33:20;;;;;;;33.58;24.80;;;10.60;99.90;;;10.55;77.04;100967.69;5115369;28;20058;-89
2022/11/14 10:36:17;;;;;;;34.58;24.15;;;10.50;99.90;;;10.40;77.37;100963.31;5114878;28;20050;-87
2022/11/14 10:39:15;;;;;;;32.85;24.58;;;10.40;99.90;;;10.57;78.45;100977.38;5114824;28;20169;-83
2022/11/14 10:42:13;;;;;;;34.88;24.50;;;10.30;99.90;;;10.09;79.32;100919.28;5114874;28;20070;-88
2022/11/14 10:45:08;;;;;;;33.85;26.52;;;10.20;99.90;;;9.92;78.59;100853.28;5115361;28;20101;-87
2022/11/14 10:47:59;;;;;;;35.67;26.92;;;10.40;99.90;;;10.52;79.47;100967.69;5115028;28;20132;-87
2022/11/14 10:50:51;;;;;;;;;;;10.30;99.90;;;9.43;79.47;100827.78;5115338;28;20046;-86
2022/11/14 10:53:54;;;;;;;45.70;26.83;;;10.40;99.90;;;10.18;79.73;100913.16;5115034;28;20412;-86
2022/11/14 10:56:47;;;;;;;40.17;27.42;;;10.40;99.90;;;10.23;80.27;100977.44;5114990;28;20096;-87
2022/11/14 10:59:35;;;;;;;46.00;31.75;;;10.20;99.90;;;9.74;80.95;100874.41;5114586;28;20084;-88
2022/11/14 11:02:25;;;;;;;44.45;32.00;;;10.10;99.90;;;9.74;81.55;100865.59;5114990;28;20409;-88
2022/11/14 11:05:17;;;;;;;34.03;23.80;;;10.20;99.90;;;10.63;80.10;100958.84;5114775;28;20050;-88
2022/11/14 11:11:32;;;;;;;29.52;21.90;;;10.60;99.90;;;10.71;77.19;100882.97;5114526;28;20055;-87
2022/11/14 11:14:20;;;;;;;30.17;22.67;;;10.90;99.90;;;11.00;78.61;100961.31;5114131;28;20057;-88
2022/11/14 11:17:24;;;;;;;31.50;22.92;;;10.80;99.90;;;9.58;77.88;100698.38;5114178;28;20138;-87
2022/11/14 11:20:32;;;;;;;31.63;24.30;;;10.80;99.90;;;11.12;77.63;100962.16;5114449;28;20232;-88
2022/11/14 11:23:24;;;;;;;33.17;23.23;;;10.90;99.90;;;10.81;77.30;100881.16;5114679;28;20054;-87
2022/11/14 11:26:23;;;;;;;31.23;23.80;;;11.00;99.90;;;10.75;75.86;100800.06;5114362;28;20432;-87
2022/11/14 11:29:17;;;;;;;33.67;22.77;;;11.40;99.90;;;11.52;75.61;100936.28;5113752;28;20477;-88
2022/11/14 11:32:06;;;;;;;32.42;22.90;;;11.40;99.90;;;11.59;76.02;100936.25;5113721;28;20063;-87
2022/11/14 11:34:57;;;;;;;36.85;24.25;;;11.40;99.90;;;11.38;75.29;100866.69;5112829;28;20195;-87
2022/11/14 11:37:53;;;;;;;37.08;24.75;;;11.50;99.90;;;11.06;75.04;100776.91;5113739;28;20618;-86
2022/11/14 11:40:44;;;;;;;36.28;24.67;;;11.80;99.90;;;11.34;75.43;100828.72;5113736;28;20089;-88
2022/11/14 11:43:37;;;;;;;33.78;24.67;;;11.70;99.90;;;12.25;75.01;100979.03;5113706;28;20058;-87